Flight Track Log - Related Links

Times and Time Zones

All times are in EDT time to prevent confusion due to time zone crossing. See the RPA3869 flight status page for this flight to view local times or setup timezone preferences in your user account.

Time Position Orientation Groundspeed Altitude Reporting Facility
EDT Latitude Longitude Course Direction KTS MPH feet Rate Location/Type
Wed 06:01:28 PM 40.6833 -74.2833 77° East 231 266 5,000  Level New York TRACON
Wed 06:02:00 PM 41.0705 -74.1358 North  Level FlightAware Approximate
Wed 06:02:28 PM 40.7500 -74.2667 11° North 250 288 6,900  Level New York TRACON
Wed 06:03:00 PM 41.1551 -74.1105 74° East  Level FlightAware Approximate
Wed 06:03:28 PM 40.8167 -74.2500 11° North 253 291 7,000  Level New York TRACON
Wed 06:04:00 PM 41.1827 -73.9864 74° East  Level FlightAware Approximate
Wed 06:04:28 PM 40.8833 -74.2500 360° North 258 297 7,000  Level New York TRACON
Wed 06:05:00 PM 41.2000 -73.8680 90° East  Level FlightAware Approximate
Wed 06:05:29 PM 40.9500 -74.2333 11° North 254 292 7,000  Level New York TRACON
Wed 06:06:00 PM 41.2340 -73.7522 77° East  Level FlightAware Approximate
Wed 06:06:29 PM 41.0333 -74.2167 North 252 290 7,000  Level New York TRACON
Wed 06:07:29 PM 41.1000 -74.2000 11° North 266 306 7,000 1,228 Level New York TRACON
Wed 06:09:20 PM 41.1756 -74.0808 50° Northeast 285 328 10,500 1,404 Climbing Boston Center
Wed 06:10:20 PM 41.2025 -73.9436 75° East 298 343 11,000 227 Climbing Boston Center
Wed 06:11:32 PM 41.2269 -73.8256 75° East 346 398 11,000 455 Level Boston Center
Wed 06:12:32 PM 41.2619 -73.6689 73° East 371 427 12,000 1,000 Climbing Boston Center
Wed 06:13:32 PM 41.3092 -73.5456 63° Northeast 353 406 13,000 500 Climbing Boston Center
Wed 06:14:32 PM 41.3642 -73.4689 46° Northeast 339 390 13,000  Level Boston Center
Wed 06:15:32 PM 41.4506 -73.3567 44° Northeast 357 411 13,000  Level Boston Center
Wed 06:16:32 PM 41.5219 -73.2831 38° Northeast 362 417 13,000  Level Boston Center
Wed 06:17:32 PM 41.6114 -73.3119 346° North 290 334 13,000  Level Boston Center
Wed 06:18:32 PM 41.6819 -73.3433 342° North 290 334 13,000  Level Boston Center
Wed 06:19:32 PM 41.7733 -73.3836 342° North 309 356 13,000  Level Boston Center
Wed 06:20:32 PM 41.8503 -73.4156 343° North 314 361 13,000  Level Boston Center
Wed 06:21:32 PM 41.9394 -73.4531 343° North 314 361 13,000 -118 Level Boston Center
Wed 06:22:14 PM 42.0017 -73.4794 343° North 310 357 12,800 -500 Descending Boston Center
Wed 06:22:32 PM 42.0164 -73.4853 344° North 308 354 12,500 -1,385 Descending Boston Center
Wed 06:23:32 PM 42.0931 -73.5228 340° North 308 354 11,000 -800 Descending Boston Center
Wed 06:24:32 PM 42.1719 -73.5381 352° North 298 343 10,900 -414 Descending Boston Center
Wed 06:25:28 PM 42.2533 -73.5425 358° North 280 322 10,200 -1,077 Descending Boston Center
Wed 06:26:29 PM 42.3242 -73.5492 356° North 258 297 8,800 -1,426 Descending Boston Center
Wed 06:27:30 PM 42.3928 -73.5506 359° North 241 277 7,300 -1,525 Descending Boston Center
Wed 06:28:31 PM 42.4658 -73.5575 356° North 238 274 5,700 -1,537 Descending Boston Center
Wed 06:29:31 PM 42.5322 -73.5811 345° North 261 300 4,200 -1,339 Descending Boston Center
Wed 06:30:32 PM 42.5986 -73.6161 339° North 263 303 3,000 -563 Descending Boston Center
Wed 06:31:39 PM 42.6753 -73.6572 338° Northwest 268 308 3,000  Level Boston Center
Wed 06:32:33 PM 42.7375 -73.6867 341° North 258 297 3,000  Level Boston Center
Wed 06:33:34 PM 42.8039 -73.6967 354° North 229 264 3,000 -443 Level Boston Center
Wed 06:34:35 PM 42.8600 -73.7233 341° North 195 224 2,100 -694 Descending Boston Center
Wed 06:35:35 PM 42.8550 -73.7883 264° West 177 204 1,600 -298 Descending Boston Center
Wed 06:36:36 PM 42.8236 -73.8131 210° Southwest 130 150 1,500 -344 Descending Boston Center
Wed 06:37:37 PM 42.7903 -73.8094 175° South 106 122 900 -590 Descending Boston Center

Login

Don't have an account? Register now (free) for customized features, flight alerts, and more!